Lindsay, MT

8:07 AM MDT on October 23, 2014 (GMT -0600)
MesoWest LINDSAY 1 MT US SCAN | Change Station
CLOSE
Current Station
Personal Weather Station
Location: Lindsay, MT
Elevation: 2680 ft
Nearby Weather Stations

Elev 2680 ft 47.21 °N, 105.19 °W | Updated 1 hour ago

Clear
Clear
41 °F
Feels Like 34 °F
N
12
Wind Variable Wind from SW
Gusts 0.0 mph

Today
High -- | Low -- °F
--% Chance of Precip.
Yesterday
High -- | Low -- °F
Precip. -- in
7:30 AM 5:58 PM
Waning Crescent, 0% visible
Pressure 29.88 in
Visibility 10.0 miles
Clouds Clear
Windchill 34 °F
Dew Point 28 °F
Humidity 61%
Rainfall -999.00 in
Snow Depth Not available.
UV 0 out of 12
Pollen 1.80 out of 12
Air Quality Not available.
Flu Activity No Activity
METAR KGDV 231355Z AUTO 15006KT 10SM CLR 01/M02 A2988 RMK AO1

More Conditions Fewer Conditions

Pressure 29.88 in
Visibility 10.0 miles
Clouds Clear
Windchill 34 °F
Dew Point 28 °F
Humidity 61%
Rainfall -999.00 in
Snow Depth Not available.
UV 0 out of 12
Pollen 1.80 out of 12
Air Quality Not available.
Flu Activity No Activity
METAR KGDV 231355Z AUTO 15006KT 10SM CLR 01/M02 A2988 RMK AO1

More Conditions Fewer Conditions

10-Day Weather Forecast

Almanac

Astronomy

Oct. 23, 2014 Rise Set
Actual Time 7:30 AM MDT 5:58 PM MDT
Civil Twilight 6:59 AM MDT 6:29 PM MDT
Nautical Twilight 6:23 AM MDT 7:05 PM MDT
Astronomical Twilight 5:48 AM MDT 7:40 PM MDT
Moon 7:11 AM MDT 6:01 PM MDT
Length of Visible Light 11h 30m
Length of Day
10h 27m
Tomorrow will be 3m 12s shorter.
Waning Crescent, 0% of the Moon is Illuminated
Today
Waning Crescent
Oct 23
New
Oct 30
First Quarter
Nov 6
Full
Nov 14
Last Quarter

Today's Extremes

State Highs State Lows

Community

WunderPhotos

Upload Photos

1,764,247 photos uploaded!

Nearby

Snow Depth

Station Depth Elevation
Crystal Lake 1 in 6050 ft
Daisy Peak 0 in 7600 ft
Burnt Mountain 0 in 5880 ft
Spur Park 0 in 8100 ft
Deadman Creek 0 in 6450 ft

Earthquake Activity

City Distance Mag. Time & Date
No recent earthquake activity has been reported nearby.
Minimum magnitude displayed is 2.5.

Coastal Water Temperatures

Place Temperature
No Stations Reporting

Nearby Weather Stations